createdAt,value
2019-03-20T00:05:07.947Z,95.40
2019-03-20T00:07:45.833Z,95.30
2019-03-20T00:10:23.521Z,89.30
2019-03-20T00:13:00.817Z,87.90
2019-03-20T00:15:38.031Z,88.80
2019-03-20T00:18:15.515Z,87.20
2019-03-20T00:20:52.754Z,87.80
2019-03-20T00:23:29.879Z,87.70
2019-03-20T00:26:06.928Z,87.40
2019-03-20T00:28:44.881Z,86.90
2019-03-20T00:31:22.014Z,87.20
2019-03-20T00:33:59.059Z,87.20
2019-03-20T00:36:36.176Z,86.90
2019-03-20T00:39:25.092Z,86.90
2019-03-20T00:42:05.593Z,87.30
2019-03-20T00:44:42.786Z,85.80
2019-03-20T00:47:20.252Z,85.60
2019-03-20T00:49:58.179Z,85.50
2019-03-20T00:52:35.495Z,86.30
2019-03-20T00:55:12.968Z,86.50
2019-03-20T00:57:50.608Z,86.70
2019-03-20T01:00:29.277Z,86.70
2019-03-20T01:03:06.571Z,87.00
2019-03-20T01:05:43.974Z,97.00
2019-03-20T01:08:21.562Z,95.50
2019-03-20T01:10:58.739Z,95.30
2019-03-20T01:13:36.240Z,84.90
2019-03-20T01:16:14.431Z,85.00
2019-03-20T01:18:51.577Z,97.00
2019-03-20T01:21:30.595Z,97.00
2019-03-20T01:24:07.689Z,84.60
2019-03-20T01:26:44.730Z,83.10
2019-03-20T01:29:21.852Z,83.80
2019-03-20T01:31:59.429Z,85.20
2019-03-20T01:34:36.659Z,82.40
2019-03-20T01:37:13.839Z,82.00
2019-03-20T01:39:51.345Z,82.50
2019-03-20T01:42:28.538Z,82.50
2019-03-20T01:45:05.965Z,82.70
2019-03-20T01:47:43.610Z,82.80
2019-03-20T01:50:21.106Z,93.30
2019-03-20T01:52:58.393Z,81.10
2019-03-20T01:55:35.538Z,80.70
2019-03-20T01:58:17.218Z,81.30
2019-03-20T02:00:54.415Z,80.40
2019-03-20T02:03:31.516Z,81.00
2019-03-20T02:06:08.655Z,93.40
2019-03-20T02:08:45.800Z,80.30
2019-03-20T02:11:22.963Z,94.40
2019-03-20T02:14:00.130Z,80.10
2019-03-20T02:16:37.399Z,80.00
2019-03-20T02:19:14.496Z,78.60
2019-03-20T02:21:51.680Z,79.70
2019-03-20T02:24:28.941Z,80.40
2019-03-20T02:27:06.230Z,79.10
2019-03-20T02:29:44.467Z,79.00
2019-03-20T02:32:21.554Z,79.50
2019-03-20T02:34:58.879Z,78.80
2019-03-20T02:37:36.012Z,93.50
2019-03-20T02:40:14.140Z,76.60
2019-03-20T02:42:51.319Z,77.60
2019-03-20T02:45:28.345Z,76.90
2019-03-20T02:48:05.496Z,76.10
2019-03-20T02:50:42.607Z,77.20
2019-03-20T02:53:19.971Z,77.10
2019-03-20T02:55:57.165Z,76.60
2019-03-20T02:58:34.556Z,77.60
2019-03-20T03:01:11.743Z,77.20
2019-03-20T03:03:48.797Z,88.90
2019-03-20T03:06:26.015Z,76.00
2019-03-20T03:09:03.341Z,76.50
2019-03-20T03:11:43.494Z,76.30
2019-03-20T03:14:21.363Z,88.70
2019-03-20T03:17:01.294Z,73.70
2019-03-20T03:19:38.970Z,81.60
2019-03-20T03:22:16.095Z,75.50
2019-03-20T03:24:53.204Z,74.60
2019-03-20T03:27:30.360Z,73.30
2019-03-20T03:30:09.044Z,91.00
2019-03-20T03:32:46.482Z,70.60
2019-03-20T03:35:24.500Z,71.90
2019-03-20T03:38:01.692Z,83.70
2019-03-20T03:43:13.499Z,82.30
2019-03-20T03:48:26.039Z,82.40
2019-03-20T03:51:03.202Z,80.40
2019-03-20T03:53:40.372Z,70.80
2019-03-20T03:56:18.223Z,84.90
2019-03-20T03:58:55.420Z,69.70
2019-03-20T04:01:32.606Z,84.80
2019-03-20T04:04:09.690Z,68.60
2019-03-20T04:06:46.979Z,80.50
2019-03-20T04:09:23.945Z,76.90
2019-03-20T04:12:01.492Z,69.20
2019-03-20T04:14:38.807Z,73.20
2019-03-20T04:17:45.410Z,66.00
2019-03-20T04:20:22.744Z,77.70
2019-03-20T04:22:59.971Z,68.00
2019-03-20T04:25:37.132Z,67.90
2019-03-20T04:28:14.371Z,67.30
2019-03-20T04:30:51.594Z,77.90
2019-03-20T04:33:28.770Z,71.90
2019-03-20T04:36:05.975Z,72.80
2019-03-20T04:38:43.084Z,73.00
2019-03-20T04:41:20.242Z,71.90
2019-03-20T04:43:57.459Z,70.90
2019-03-20T04:46:34.582Z,81.30
2019-03-20T04:49:11.880Z,68.60
2019-03-20T04:51:49.039Z,69.20
2019-03-20T04:54:26.299Z,67.20
2019-03-20T04:57:03.542Z,67.60
2019-03-20T04:59:40.772Z,67.10
2019-03-20T05:02:17.989Z,85.90
2019-03-20T05:04:55.072Z,66.60
2019-03-20T05:07:32.194Z,79.40
2019-03-20T05:10:09.491Z,65.50
2019-03-20T05:12:46.880Z,64.00
2019-03-20T05:15:24.002Z,63.70
2019-03-20T05:18:01.065Z,62.80
2019-03-20T05:20:38.426Z,77.70
2019-03-20T05:23:15.488Z,61.40
2019-03-20T05:25:53.327Z,61.60
2019-03-20T05:28:30.347Z,61.10
2019-03-20T05:31:07.584Z,61.40
2019-03-20T05:33:44.655Z,72.00
2019-03-20T05:36:21.654Z,72.20
2019-03-20T05:38:58.755Z,71.60
2019-03-20T05:41:35.816Z,72.40
2019-03-20T05:44:12.942Z,72.60
2019-03-20T05:46:50.019Z,71.80
2019-03-20T05:49:27.139Z,73.30
2019-03-20T05:52:04.370Z,73.20
2019-03-20T05:54:41.550Z,72.90
2019-03-20T05:57:18.790Z,72.80
2019-03-20T05:59:55.916Z,70.30
2019-03-20T06:02:33.127Z,70.60
2019-03-20T06:10:20.068Z,65.90
2019-03-20T06:12:58.307Z,69.60
2019-03-20T06:20:48.602Z,70.50
2019-03-20T06:23:25.912Z,71.90
2019-03-20T06:26:03.651Z,73.20
2019-03-20T06:28:41.087Z,61.90
2019-03-20T06:31:18.898Z,63.50
2019-03-20T06:33:56.229Z,64.00
2019-03-20T06:36:33.453Z,63.30
2019-03-20T06:39:12.211Z,62.10
2019-03-20T06:41:49.325Z,61.00
2019-03-20T06:44:27.939Z,60.90
2019-03-20T06:47:08.152Z,61.50
2019-03-20T06:49:46.874Z,61.10
2019-03-20T06:52:24.070Z,61.30
2019-03-20T06:55:02.667Z,71.30
2019-03-20T06:57:40.062Z,70.50
2019-03-20T07:00:59.327Z,70.00
2019-03-20T07:04:04.473Z,59.10
2019-03-20T07:07:07.478Z,73.90
2019-03-20T07:10:31.247Z,63.30
2019-03-20T07:13:08.457Z,65.80
2019-03-20T07:18:20.155Z,68.10
2019-03-20T07:20:57.320Z,70.40
2019-03-20T07:23:34.708Z,71.30
2019-03-20T07:26:11.959Z,72.90
2019-03-20T07:28:49.530Z,73.80
2019-03-20T07:31:26.701Z,74.80
2019-03-20T07:34:04.959Z,92.00
2019-03-20T07:36:42.589Z,75.60
2019-03-20T07:39:23.077Z,75.60
2019-03-20T07:42:00.784Z,76.10
2019-03-20T07:45:04.822Z,91.70
2019-03-20T07:47:42.170Z,76.40
2019-03-20T07:50:19.529Z,76.90
2019-03-20T07:52:56.745Z,77.10
2019-03-20T07:55:37.911Z,77.40
2019-03-20T07:58:15.414Z,77.60
2019-03-20T08:00:52.655Z,77.80
2019-03-20T08:03:34.387Z,78.00
2019-03-20T08:06:14.658Z,78.70
2019-03-20T08:08:51.875Z,78.30
2019-03-20T08:11:29.179Z,78.30
2019-03-20T08:14:06.392Z,78.40
2019-03-20T08:16:43.441Z,78.30
2019-03-20T08:19:20.495Z,78.60
2019-03-20T08:21:59.443Z,78.60
2019-03-20T08:24:36.509Z,78.70
2019-03-20T08:27:13.670Z,78.60
2019-03-20T08:29:50.911Z,79.20
2019-03-20T08:32:28.134Z,79.40
2019-03-20T08:35:05.222Z,79.30
2019-03-20T08:37:42.407Z,79.20
2019-03-20T08:40:21.349Z,79.20
2019-03-20T08:42:58.537Z,79.20
2019-03-20T08:45:38.547Z,79.30
2019-03-20T08:48:16.764Z,79.60
2019-03-20T08:50:53.923Z,80.40
2019-03-20T08:53:31.105Z,79.80
2019-03-20T08:56:08.412Z,80.10
2019-03-20T08:58:45.516Z,80.60
2019-03-20T09:01:28.549Z,80.80
2019-03-20T09:04:05.653Z,81.00
2019-03-20T09:06:44.787Z,81.00
2019-03-20T09:09:21.854Z,81.10
2019-03-20T09:12:00.525Z,81.40
2019-03-20T09:14:37.832Z,81.40
2019-03-20T09:17:20.487Z,82.00
2019-03-20T09:19:58.576Z,81.70
2019-03-20T09:22:36.387Z,81.80
2019-03-20T09:25:16.190Z,81.60
2019-03-20T09:27:53.338Z,81.90
2019-03-20T09:30:33.369Z,82.30
2019-03-20T09:33:09.827Z,82.60
2019-03-20T09:35:48.184Z,94.60
2019-03-20T09:38:25.896Z,82.90
2019-03-20T09:41:03.368Z,82.80
2019-03-20T09:43:40.602Z,82.60
2019-03-20T09:46:17.886Z,83.30
2019-03-20T09:48:55.195Z,83.50
2019-03-20T09:51:32.598Z,83.40
2019-03-20T09:54:11.483Z,83.50
2019-03-20T09:56:50.084Z,84.30
2019-03-20T09:59:27.404Z,84.40
2019-03-20T10:02:05.864Z,84.40
2019-03-20T10:04:49.239Z,84.40
2019-03-20T10:07:28.211Z,84.70
2019-03-20T10:10:05.516Z,84.40
2019-03-20T10:12:43.007Z,84.50
2019-03-20T10:15:21.160Z,84.20
2019-03-20T10:18:00.685Z,84.20
2019-03-20T10:20:38.112Z,83.70
2019-03-20T10:23:17.135Z,83.80
2019-03-20T10:25:55.568Z,84.00
2019-03-20T10:28:33.166Z,84.00
2019-03-20T10:31:10.621Z,83.90
2019-03-20T10:33:48.055Z,83.60
2019-03-20T10:36:26.408Z,83.50
2019-03-20T10:41:38.670Z,83.00
2019-03-20T10:44:15.882Z,83.20
2019-03-20T10:46:53.173Z,83.00
2019-03-20T10:49:33.088Z,83.20
2019-03-20T10:52:11.629Z,82.90
2019-03-20T10:54:50.782Z,97.30
2019-03-20T10:57:28.474Z,98.00
2019-03-20T11:00:05.679Z,98.00
2019-03-20T11:02:43.145Z,84.40
2019-03-20T11:05:22.298Z,84.30
2019-03-20T11:07:59.794Z,84.50
2019-03-20T11:10:37.626Z,84.50
2019-03-20T11:13:14.814Z,84.80
2019-03-20T11:15:52.934Z,85.10
2019-03-20T11:18:29.848Z,86.00
2019-03-20T11:21:08.377Z,85.90
2019-03-20T11:23:45.542Z,86.00
2019-03-20T11:26:23.011Z,85.80
2019-03-20T11:29:00.103Z,86.40
2019-03-20T11:31:37.192Z,86.50
2019-03-20T11:34:14.383Z,86.40
2019-03-20T11:36:51.991Z,86.20
2019-03-20T11:39:29.890Z,86.20
2019-03-20T11:42:07.479Z,86.30
2019-03-20T11:44:44.834Z,86.30
2019-03-20T11:47:22.287Z,86.70
2019-03-20T11:49:59.614Z,86.90
2019-03-20T11:52:36.924Z,86.90
2019-03-20T11:55:15.021Z,86.90
2019-03-20T11:57:52.198Z,99.50
2019-03-20T12:00:29.865Z,87.00
2019-03-20T12:03:06.920Z,87.30
2019-03-20T12:05:49.393Z,87.30
2019-03-20T12:08:26.386Z,87.20
2019-03-20T12:11:03.884Z,87.10
2019-03-20T12:13:41.159Z,87.10
2019-03-20T12:16:18.337Z,87.20
2019-03-20T12:18:55.513Z,87.40
2019-03-20T12:21:32.531Z,87.30
2019-03-20T12:24:09.928Z,99.10
2019-03-20T12:26:47.241Z,87.80
2019-03-20T12:29:24.447Z,99.90
2019-03-20T12:32:01.795Z,88.80
2019-03-20T12:34:39.255Z,88.90
2019-03-20T12:37:17.630Z,89.40
2019-03-20T12:39:54.888Z,99.20
2019-03-20T12:42:32.295Z,89.40
2019-03-20T12:45:09.919Z,98.70
2019-03-20T12:47:47.173Z,98.60
2019-03-20T12:50:25.603Z,98.40
2019-03-20T12:53:04.335Z,88.90
2019-03-20T12:55:44.273Z,88.80
2019-03-20T12:58:22.519Z,88.90
2019-03-20T13:00:59.543Z,88.80
2019-03-20T13:03:36.735Z,89.00
2019-03-20T13:08:48.589Z,95.90
2019-03-20T13:14:02.181Z,95.70
2019-03-20T13:16:39.700Z,95.70
2019-03-20T13:19:16.782Z,95.80
2019-03-20T13:21:53.919Z,95.70
2019-03-20T13:24:31.274Z,95.60
2019-03-20T13:29:44.845Z,95.80
2019-03-20T13:32:22.187Z,95.60
2019-03-20T13:34:59.312Z,95.50
2019-03-20T13:37:36.419Z,95.70
2019-03-20T13:40:14.814Z,89.20
2019-03-20T13:42:52.106Z,89.60
2019-03-20T13:45:29.319Z,89.40
2019-03-20T13:48:06.564Z,97.20
2019-03-20T13:50:43.815Z,89.00
2019-03-20T13:53:20.940Z,97.60
2019-03-20T13:55:58.318Z,96.40
2019-03-20T13:58:35.413Z,89.10
2019-03-20T14:01:12.614Z,89.00
2019-03-20T14:03:49.710Z,96.40
2019-03-20T14:06:30.915Z,96.50
2019-03-20T14:09:10.256Z,96.50
2019-03-20T14:11:47.598Z,96.30
2019-03-20T14:14:24.749Z,88.70
2019-03-20T14:17:01.895Z,96.30
2019-03-20T14:19:38.994Z,96.40
2019-03-20T14:22:17.906Z,88.60
2019-03-20T14:24:57.192Z,96.50
2019-03-20T14:27:34.270Z,96.30
2019-03-20T14:32:46.634Z,96.20
2019-03-20T14:35:23.844Z,96.20
2019-03-20T14:38:01.131Z,96.10
2019-03-20T14:43:14.129Z,89.20
2019-03-20T14:45:51.379Z,96.80
2019-03-20T14:48:30.104Z,97.20
2019-03-20T14:51:08.783Z,90.20
2019-03-20T14:53:45.868Z,96.80
2019-03-20T14:56:22.879Z,96.80
2019-03-20T14:58:59.982Z,96.60
2019-03-20T15:01:37.103Z,96.80
2019-03-20T15:04:14.717Z,96.60
2019-03-20T15:12:01.207Z,91.20
2019-03-20T15:14:38.289Z,97.70
2019-03-20T15:17:15.967Z,90.80
2019-03-20T15:19:53.210Z,97.60
2019-03-20T15:22:30.378Z,90.90
2019-03-20T15:25:07.524Z,91.00
2019-03-20T15:27:44.549Z,91.10
2019-03-20T15:30:22.322Z,91.10
2019-03-20T15:32:59.446Z,91.00
2019-03-20T15:35:36.800Z,91.00
2019-03-20T15:38:13.832Z,91.20
2019-03-20T15:40:56.230Z,91.30
2019-03-20T15:43:29.244Z,98.50
2019-03-20T15:46:06.395Z,98.10
2019-03-20T15:48:43.428Z,98.00
2019-03-20T15:51:20.545Z,91.30
2019-03-20T15:53:57.712Z,91.30
2019-03-20T15:56:35.020Z,91.50
2019-03-20T15:59:12.354Z,91.40
2019-03-20T16:01:51.692Z,98.90
2019-03-20T16:04:28.693Z,91.30
2019-03-20T16:07:06.609Z,91.50
2019-03-20T16:09:43.696Z,91.30
2019-03-20T16:12:21.019Z,91.20
2019-03-20T16:14:58.155Z,91.10
2019-03-20T16:17:35.700Z,91.00
2019-03-20T16:20:14.156Z,91.00
2019-03-20T16:22:51.398Z,90.90
2019-03-20T16:25:28.787Z,90.80
2019-03-20T16:28:05.892Z,90.70
2019-03-20T16:30:42.953Z,90.70
2019-03-20T16:33:20.050Z,90.60
2019-03-20T16:35:57.111Z,90.50
2019-03-20T16:38:34.245Z,90.20
2019-03-20T16:41:16.732Z,90.30
2019-03-20T16:43:49.667Z,90.20
2019-03-20T16:46:26.848Z,90.20
2019-03-20T16:49:03.969Z,90.40
2019-03-20T16:51:41.053Z,90.10
2019-03-20T16:54:18.261Z,90.00
2019-03-20T16:56:55.409Z,90.00
2019-03-20T16:59:32.571Z,90.00
2019-03-20T17:02:09.814Z,90.20
2019-03-20T17:04:46.992Z,90.10
2019-03-20T17:07:24.109Z,90.10
2019-03-20T17:10:01.196Z,90.00
2019-03-20T17:12:38.352Z,90.00
2019-03-20T17:15:19.943Z,89.90
2019-03-20T17:17:57.746Z,89.80
2019-03-20T17:20:35.074Z,90.00
2019-03-20T17:23:12.873Z,89.80
2019-03-20T17:25:50.199Z,90.00
2019-03-20T17:28:27.663Z,96.50
2019-03-20T17:31:04.965Z,96.80
2019-03-20T17:33:42.026Z,96.60
2019-03-20T17:36:19.183Z,96.80
2019-03-20T17:38:56.234Z,96.70
2019-03-20T17:41:36.637Z,97.10
2019-03-20T17:44:11.895Z,97.00
2019-03-20T17:46:49.192Z,97.30
2019-03-20T17:52:00.994Z,97.30
2019-03-20T17:57:15.148Z,97.10
2019-03-20T18:05:49.812Z,96.80
2019-03-20T18:08:26.943Z,96.70
2019-03-20T18:11:04.335Z,97.30
2019-03-20T18:13:41.308Z,97.70
2019-03-20T18:16:18.403Z,97.70
2019-03-20T18:18:55.552Z,97.70
2019-03-20T18:21:32.794Z,97.60
2019-03-20T18:26:44.462Z,90.10
2019-03-20T18:29:21.579Z,97.70
2019-03-20T18:31:58.765Z,97.60
2019-03-20T18:34:35.785Z,97.40
2019-03-20T18:37:12.952Z,98.10
2019-03-20T18:39:49.921Z,97.70
2019-03-20T18:42:27.120Z,97.90
2019-03-20T18:45:04.143Z,97.70
2019-03-20T18:47:41.261Z,98.00
2019-03-20T18:50:18.960Z,90.60
2019-03-20T18:52:56.307Z,90.70
2019-03-20T18:55:33.547Z,90.70
2019-03-20T18:58:10.759Z,90.80
2019-03-20T19:00:47.888Z,91.00
2019-03-20T19:03:25.054Z,90.90
2019-03-20T19:06:05.510Z,91.00
2019-03-20T19:08:44.531Z,91.00
2019-03-20T19:11:21.621Z,91.30
2019-03-20T19:13:58.756Z,91.00
2019-03-20T19:16:35.763Z,90.90
2019-03-20T19:19:12.950Z,90.90
2019-03-20T19:21:50.250Z,91.00
2019-03-20T19:24:27.342Z,91.10
2019-03-20T19:27:07.355Z,91.20
2019-03-20T19:29:44.369Z,91.10
2019-03-20T19:32:21.456Z,91.20
2019-03-20T19:34:58.594Z,99.90
2019-03-20T19:37:35.687Z,91.10
2019-03-20T19:40:13.381Z,99.70
2019-03-20T19:42:50.536Z,90.90
2019-03-20T19:45:27.797Z,90.80
2019-03-20T19:48:04.852Z,90.60
2019-03-20T19:50:42.075Z,90.80
2019-03-20T19:53:19.155Z,90.80
2019-03-20T19:55:56.175Z,90.90
2019-03-20T19:58:33.167Z,91.00
2019-03-20T20:01:10.307Z,90.80
2019-03-20T20:03:47.285Z,91.10
2019-03-20T20:06:24.344Z,91.20
2019-03-20T20:09:01.319Z,91.20
2019-03-20T20:11:38.431Z,91.40
2019-03-20T20:14:15.504Z,91.50
2019-03-20T20:16:53.825Z,91.30
2019-03-20T20:19:30.888Z,91.70
2019-03-20T20:22:07.896Z,91.20
2019-03-20T20:24:44.959Z,91.20
2019-03-20T20:27:22.445Z,91.30
2019-03-20T20:29:59.563Z,90.80
2019-03-20T20:32:36.940Z,90.80
2019-03-20T20:35:14.263Z,90.70
2019-03-20T20:37:51.400Z,90.80
2019-03-20T20:40:28.543Z,90.50
2019-03-20T20:43:05.789Z,90.30
2019-03-20T20:45:42.945Z,90.20
2019-03-20T20:48:20.177Z,99.00
2019-03-20T20:50:57.397Z,90.20
2019-03-20T20:53:34.576Z,96.90
2019-03-20T21:01:21.570Z,96.20
2019-03-20T21:03:58.650Z,96.10
2019-03-20T21:09:12.313Z,91.00
2019-03-20T21:11:49.399Z,90.20
2019-03-20T21:14:26.610Z,90.30
2019-03-20T21:17:04.158Z,90.00
2019-03-20T21:19:39.743Z,89.80
2019-03-20T21:23:09.495Z,89.70
2019-03-20T21:25:47.037Z,90.00
2019-03-20T21:28:54.424Z,89.90
2019-03-20T21:31:41.786Z,90.00
2019-03-20T21:34:53.880Z,90.10
2019-03-20T21:38:18.989Z,90.10
2019-03-20T21:41:27.239Z,90.30
2019-03-20T21:44:54.467Z,90.50
2019-03-20T21:47:39.663Z,99.40
2019-03-20T21:50:58.070Z,90.70
2019-03-20T21:53:58.274Z,90.80
2019-03-20T21:56:43.727Z,91.10
2019-03-20T21:59:45.884Z,98.70
2019-03-20T22:02:49.562Z,99.40
2019-03-20T22:05:36.115Z,99.90
2019-03-20T22:08:13.788Z,93.40
2019-03-20T22:11:22.833Z,94.00
2019-03-20T22:14:07.260Z,94.10
2019-03-20T22:17:31.549Z,94.90
2019-03-20T22:23:31.755Z,99.70
2019-03-20T22:26:54.557Z,99.90
2019-03-20T22:29:32.799Z,96.40
2019-03-20T22:32:28.098Z,96.60
2019-03-20T22:35:28.349Z,96.20
2019-03-20T22:38:06.943Z,96.40
2019-03-20T22:41:15.667Z,96.50
2019-03-20T22:44:06.317Z,95.80
2019-03-20T22:47:39.214Z,99.90
2019-03-20T22:50:33.719Z,99.90
2019-03-20T22:54:00.879Z,99.90
2019-03-20T22:57:10.184Z,99.90
2019-03-20T23:02:23.602Z,99.90
2019-03-20T23:05:03.894Z,99.90
2019-03-20T23:07:41.582Z,95.80
2019-03-20T23:10:20.316Z,99.90
2019-03-20T23:15:51.026Z,95.50
2019-03-20T23:18:29.108Z,95.60
2019-03-20T23:21:06.836Z,95.40
2019-03-20T23:23:46.092Z,99.90
2019-03-20T23:44:28.776Z,99.90
2019-03-20T23:49:41.598Z,99.90
2019-03-20T23:52:19.299Z,99.90
2019-03-20T23:55:01.955Z,99.90
2019-03-20T23:57:39.616Z,97.50
